Bareilly — A8KG7 — position and weather

sailwx.info

Track history (hours):
 
Tides and Currents Weather Stations Pressure Air Temp Water Temp Dewpoint Dewpoint Depression Visibility Wind Speed Wind Dir Waves Ship Positions

Bareilly

Last reported at 2016-Aug-18 09:33 UTC. Time now 2016-Aug-31 21:49 UTC.
Position N 36°51' W 132°29'.
Warning: this ship's position is 13 days out of date.

Length 243 m; draft 8.5 m.

Type: Tanker. MMSI: 636013054.

Date/timePositionNaut miles runAvg speedWind from/ knotsBaromVisibWave heightAir tempDewpointWater temp
2016-Aug-18 09:33N 36°51' W 132°29'292 9.4
2016-Aug-17 02:33N 38°25' W 126°40'108 9.6
2016-Aug-16 15:15N 37°39' W 124°36'1412.0
2016-Aug-16 14:06N 37°37' W 124°18'912.6
2016-Aug-16 13:23N 37°37' W 124°07'2413.4
2016-Aug-16 11:33N 37°36' W 123°36'1413.6
2016-Aug-16 10:33N 37°35' W 123°19'1413.6
2016-Aug-16 09:34N 37°35' W 123°02'1414.0
2016-Aug-16 08:33N 37°43' W 122°47'1313.3
2016-Aug-16 07:33N 37°48' W 122°32'9 2.9
2016-Aug-16 04:33N 37°46' W 122°21'0 0.0
2016-Aug-16 03:33N 37°46' W 122°21'0 0.0
2016-Aug-16 02:33N 37°46' W 122°21'0 0.0
2016-Aug-16 01:33N 37°46' W 122°21'0 0.1
2016-Aug-16 00:33N 37°46' W 122°21'0 0.2
2016-Aug-15 23:33N 37°46' W 122°21'0 0.1
2016-Aug-15 22:33N 37°46' W 122°21'0 0.0
2016-Aug-15 21:33N 37°46' W 122°21'0 0.0
2016-Aug-15 20:33N 37°46' W 122°21'0 0.2
2016-Aug-15 19:33N 37°46' W 122°21'1 1.1
2016-Aug-15 18:33N 37°47' W 122°22'1110.5
2016-Aug-15 17:34N 37°57' W 122°27'1111.2
2016-Aug-15 16:34N 38°04' W 122°16'6 0.2
2016-Aug-14 07:28N 38°03' W 122°08'1 0.4
2016-Aug-14 04:33N 38°02' W 122°09'8 8.2
2016-Aug-14 03:33N 38°03' W 122°19'1010.0
2016-Aug-14 02:33N 37°55' W 122°27'7 7.4
2016-Aug-14 01:33N 37°48' W 122°30'9 9.5
2016-Aug-14 00:33N 37°43' W 122°39'7 7.1
2016-Aug-13 23:33N 37°36' W 122°40'10 9.6
2016-Aug-13 22:33N 37°26' W 122°39'10 9.7
2016-Aug-13 21:33N 37°16' W 122°40'9 8.8
2016-Aug-13 20:33N 37°09' W 122°45'1 0.7
2016-Aug-13 19:33N 37°08' W 122°46'1 0.6
2016-Aug-13 18:33N 37°08' W 122°47'1 0.5
2016-Aug-13 17:33N 37°08' W 122°47'0 0.4
2016-Aug-13 16:34N 37°08' W 122°48'0 0.4
2016-Aug-13 15:34N 37°08' W 122°48'0 0.4
2016-Aug-13 14:33N 37°08' W 122°49'1 0.5
2016-Aug-13 13:34N 37°08' W 122°49'1 1.3
2016-Aug-13 12:34N 37°07' W 122°49'1010.0
2016-Aug-13 11:34N 36°58' W 122°42'1312.7
2016-Aug-13 10:33N 36°46' W 122°40'1312.8
2016-Aug-13 09:33N 36°33' W 122°39'1312.7
2016-Aug-13 08:33N 36°20' W 122°39'1212.5
2016-Aug-13 07:33N 36°08' W 122°39'1212.1
2016-Aug-13 06:33N 35°56' W 122°36'1212.3
2016-Aug-13 05:33N 35°46' W 122°28'1211.9
2016-Aug-13 04:33N 35°36' W 122°20'1212.4
2016-Aug-13 03:33N 35°25' W 122°12'1312.7
2016-Aug-13 02:33N 35°15' W 122°03'1312.6
2016-Aug-13 01:33N 35°04' W 121°55'1312.6
2016-Aug-13 00:33N 34°53' W 121°47'1312.9
2016-Aug-12 23:33N 34°42' W 121°38'1412.9
2016-Aug-12 22:26N 34°30' W 121°29'2513.2
2016-Aug-12 20:32N 34°09' W 121°12'3913.0
2016-Aug-12 17:33N 33°37' W 120°47'1413.1
2016-Aug-12 16:31N 33°25' W 120°38'3213.1
2016-Aug-12 14:05N 32°58' W 120°18'813.0
2016-Aug-12 13:30N 32°52' W 120°12'2513.1
2016-Aug-12 11:33N 32°30' W 119°56'1313.3
2016-Aug-12 10:33N 32°19' W 119°48'1313.5
2016-Aug-12 09:33N 32°08' W 119°39'1313.4
2016-Aug-12 08:34N 31°58' W 119°28'2 2.3
2016-Aug-12 07:34N 31°56' W 119°27'1 1.2
2016-Aug-12 06:33N 31°56' W 119°28'1 1.1
2016-Aug-12 05:33N 31°57' W 119°29'1 1.3
2016-Aug-12 04:33N 31°58' W 119°30'1 1.1
2016-Aug-12 03:33N 31°59' W 119°31'1 1.2
2016-Aug-12 02:32N 32°00' W 119°32'1 1.3
2016-Aug-12 01:33N 32°01' W 119°32'1 1.0
2016-Aug-12 00:27N 32°02' W 119°33'1 0.9
2016-Aug-11 23:28N 32°03' W 119°34'1 0.7
2016-Aug-11 22:24N 32°03' W 119°34'0 0.5
2016-Aug-11 21:34N 32°04' W 119°34'1 0.5
2016-Aug-11 20:32N 32°04' W 119°35'2 1.6
2016-Aug-11 19:27N 32°06' W 119°36'5 4.7
2016-Aug-11 18:24N 32°10' W 119°39'3 3.6
2016-Aug-11 17:28N 32°13' W 119°41'1 0.9
2016-Aug-11 16:33N 32°12' W 119°42'2 1.9
2016-Aug-11 15:34N 32°13' W 119°44'2 2.1
2016-Aug-11 14:25N 32°13' W 119°47'2 1.6
2016-Aug-11 13:10N 32°14' W 119°49'1 0.2
2016-Aug-11 07:33N 32°14' W 119°48'1 0.8
2016-Aug-11 06:27N 32°15' W 119°47'5 5.2
2016-Aug-11 05:28N 32°15' W 119°41'1212.9
2016-Aug-11 04:34N 32°15' W 119°27'1312.9
2016-Aug-11 03:34N 32°15' W 119°12'1312.7
2016-Aug-11 02:34N 32°15' W 118°57'1312.6
2016-Aug-11 01:34N 32°16' W 118°42'1312.9
2016-Aug-11 00:33N 32°19' W 118°27'1313.3
2016-Aug-10 23:33N 32°23' W 118°12'1313.0
2016-Aug-10 22:33N 32°27' W 117°58'1313.1
2016-Aug-10 21:33N 32°31' W 117°43'1313.1
2016-Aug-10 20:33N 32°34' W 117°28'9 9.3
2016-Aug-10 19:33N 32°37' W 117°17'0 0.4
2016-Aug-10 18:34N 32°37' W 117°17'0 0.5
2016-Aug-10 17:34N 32°38' W 117°18'0 0.3
2016-Aug-10 16:33N 32°38' W 117°18'1 1.2
2016-Aug-10 15:33N 32°37' W 117°16'1 0.6
2016-Aug-10 14:33N 32°38' W 117°17'3 2.9
2016-Aug-10 13:34N 32°37' W 117°20'7 7.1
2016-Aug-10 12:33N 32°35' W 117°28'10 9.7
2016-Aug-10 11:33N 32°32' W 117°39'1010.0
2016-Aug-10 10:33N 32°29' W 117°51'10 9.8
2016-Aug-10 09:33N 32°26' W 118°02'7 7.4
2016-Aug-10 08:34N 32°24' W 118°10'7 7.4
2016-Aug-10 07:33N 32°22' W 118°19'7 7.2
2016-Aug-10 06:32N 32°20' W 118°27'7 7.4
2016-Aug-10 05:34N 32°17' W 118°35'9 9.1
2016-Aug-10 04:33N 32°15' W 118°45'7 7.5
2016-Aug-10 03:33N 32°15' W 118°54'1010.3
2016-Aug-10 02:33N 32°18' W 119°06'1010.3
2016-Aug-10 01:33N 32°19' W 119°18'1010.0
2016-Aug-10 00:34N 32°21' W 119°30'1010.0
2016-Aug-09 23:33N 32°23' W 119°41'10 9.9
2016-Aug-09 22:33N 32°24' W 119°53'11 9.8
2016-Aug-09 21:27N 32°26' W 120°06'1210.0
2016-Aug-09 20:17N 32°28' W 120°20'910.0
2016-Aug-09 19:22N 32°29' W 120°30'9 9.8
2016-Aug-09 18:30N 32°31' W 120°40'19 9.9
2016-Aug-09 16:34N 32°34' W 121°03'10 9.3
2016-Aug-09 15:30N 32°35' W 121°14'12 9.5
2016-Aug-09 14:17N 32°37' W 121°28'8 9.3
2016-Aug-09 13:25N 32°38' W 121°37'8 9.4
2016-Aug-09 12:30N 32°40' W 121°47'47 7.9
2016-Aug-09 06:31N 32°47' W 122°43'  
Track history (hours):
 
Tides and Currents Weather Stations Pressure Air Temp Water Temp Dewpoint Dewpoint Depression Visibility Wind Speed Wind Dir Waves Ship Positions

Bareilly

Last reported at 2016-Aug-18 09:33 UTC. Time now 2016-Aug-31 21:49 UTC.
Position N 36°51' W 132°29'.
Warning: this ship's position is 13 days out of date.

Length 243 m; draft 8.5 m.

Type: Tanker. MMSI: 636013054.

Date/timePositionNaut miles runAvg speedWind from/ knotsBaromVisibWave heightAir tempDewpointWater temp
2016-Aug-18 09:33N 36°51' W 132°29'292 9.4
2016-Aug-17 02:33N 38°25' W 126°40'108 9.6
2016-Aug-16 15:15N 37°39' W 124°36'1412.0
2016-Aug-16 14:06N 37°37' W 124°18'912.6
2016-Aug-16 13:23N 37°37' W 124°07'2413.4
2016-Aug-16 11:33N 37°36' W 123°36'1413.6
2016-Aug-16 10:33N 37°35' W 123°19'1413.6
2016-Aug-16 09:34N 37°35' W 123°02'1414.0
2016-Aug-16 08:33N 37°43' W 122°47'1313.3
2016-Aug-16 07:33N 37°48' W 122°32'9 2.9
2016-Aug-16 04:33N 37°46' W 122°21'0 0.0
2016-Aug-16 03:33N 37°46' W 122°21'0 0.0
2016-Aug-16 02:33N 37°46' W 122°21'0 0.0
2016-Aug-16 01:33N 37°46' W 122°21'0 0.1
2016-Aug-16 00:33N 37°46' W 122°21'0 0.2
2016-Aug-15 23:33N 37°46' W 122°21'0 0.1
2016-Aug-15 22:33N 37°46' W 122°21'0 0.0
2016-Aug-15 21:33N 37°46' W 122°21'0 0.0
2016-Aug-15 20:33N 37°46' W 122°21'0 0.2
2016-Aug-15 19:33N 37°46' W 122°21'1 1.1
2016-Aug-15 18:33N 37°47' W 122°22'1110.5
2016-Aug-15 17:34N 37°57' W 122°27'1111.2
2016-Aug-15 16:34N 38°04' W 122°16'6 0.2
2016-Aug-14 07:28N 38°03' W 122°08'1 0.4
2016-Aug-14 04:33N 38°02' W 122°09'8 8.2
2016-Aug-14 03:33N 38°03' W 122°19'1010.0
2016-Aug-14 02:33N 37°55' W 122°27'7 7.4
2016-Aug-14 01:33N 37°48' W 122°30'9 9.5
2016-Aug-14 00:33N 37°43' W 122°39'7 7.1
2016-Aug-13 23:33N 37°36' W 122°40'10 9.6
2016-Aug-13 22:33N 37°26' W 122°39'10 9.7
2016-Aug-13 21:33N 37°16' W 122°40'9 8.8
2016-Aug-13 20:33N 37°09' W 122°45'1 0.7
2016-Aug-13 19:33N 37°08' W 122°46'1 0.6
2016-Aug-13 18:33N 37°08' W 122°47'1 0.5
2016-Aug-13 17:33N 37°08' W 122°47'0 0.4
2016-Aug-13 16:34N 37°08' W 122°48'0 0.4
2016-Aug-13 15:34N 37°08' W 122°48'0 0.4
2016-Aug-13 14:33N 37°08' W 122°49'1 0.5
2016-Aug-13 13:34N 37°08' W 122°49'1 1.3
2016-Aug-13 12:34N 37°07' W 122°49'1010.0
2016-Aug-13 11:34N 36°58' W 122°42'1312.7
2016-Aug-13 10:33N 36°46' W 122°40'1312.8
2016-Aug-13 09:33N 36°33' W 122°39'1312.7
2016-Aug-13 08:33N 36°20' W 122°39'1212.5
2016-Aug-13 07:33N 36°08' W 122°39'1212.1
2016-Aug-13 06:33N 35°56' W 122°36'1212.3
2016-Aug-13 05:33N 35°46' W 122°28'1211.9
2016-Aug-13 04:33N 35°36' W 122°20'1212.4
2016-Aug-13 03:33N 35°25' W 122°12'1312.7
2016-Aug-13 02:33N 35°15' W 122°03'1312.6
2016-Aug-13 01:33N 35°04' W 121°55'1312.6
2016-Aug-13 00:33N 34°53' W 121°47'1312.9
2016-Aug-12 23:33N 34°42' W 121°38'1412.9
2016-Aug-12 22:26N 34°30' W 121°29'2513.2
2016-Aug-12 20:32N 34°09' W 121°12'3913.0
2016-Aug-12 17:33N 33°37' W 120°47'1413.1
2016-Aug-12 16:31N 33°25' W 120°38'3213.1
2016-Aug-12 14:05N 32°58' W 120°18'813.0
2016-Aug-12 13:30N 32°52' W 120°12'2513.1
2016-Aug-12 11:33N 32°30' W 119°56'1313.3
2016-Aug-12 10:33N 32°19' W 119°48'1313.5
2016-Aug-12 09:33N 32°08' W 119°39'1313.4
2016-Aug-12 08:34N 31°58' W 119°28'2 2.3
2016-Aug-12 07:34N 31°56' W 119°27'1 1.2
2016-Aug-12 06:33N 31°56' W 119°28'1 1.1
2016-Aug-12 05:33N 31°57' W 119°29'1 1.3
2016-Aug-12 04:33N 31°58' W 119°30'1 1.1
2016-Aug-12 03:33N 31°59' W 119°31'1 1.2
2016-Aug-12 02:32N 32°00' W 119°32'1 1.3
2016-Aug-12 01:33N 32°01' W 119°32'1 1.0
2016-Aug-12 00:27N 32°02' W 119°33'1 0.9
2016-Aug-11 23:28N 32°03' W 119°34'1 0.7
2016-Aug-11 22:24N 32°03' W 119°34'0 0.5
2016-Aug-11 21:34N 32°04' W 119°34'1 0.5
2016-Aug-11 20:32N 32°04' W 119°35'2 1.6
2016-Aug-11 19:27N 32°06' W 119°36'5 4.7
2016-Aug-11 18:24N 32°10' W 119°39'3 3.6
2016-Aug-11 17:28N 32°13' W 119°41'1 0.9
2016-Aug-11 16:33N 32°12' W 119°42'2 1.9
2016-Aug-11 15:34N 32°13' W 119°44'2 2.1
2016-Aug-11 14:25N 32°13' W 119°47'2 1.6
2016-Aug-11 13:10N 32°14' W 119°49'1 0.2
2016-Aug-11 07:33N 32°14' W 119°48'1 0.8
2016-Aug-11 06:27N 32°15' W 119°47'5 5.2
2016-Aug-11 05:28N 32°15' W 119°41'1212.9
2016-Aug-11 04:34N 32°15' W 119°27'1312.9
2016-Aug-11 03:34N 32°15' W 119°12'1312.7
2016-Aug-11 02:34N 32°15' W 118°57'1312.6
2016-Aug-11 01:34N 32°16' W 118°42'1312.9
2016-Aug-11 00:33N 32°19' W 118°27'1313.3
2016-Aug-10 23:33N 32°23' W 118°12'1313.0
2016-Aug-10 22:33N 32°27' W 117°58'1313.1
2016-Aug-10 21:33N 32°31' W 117°43'1313.1
2016-Aug-10 20:33N 32°34' W 117°28'9 9.3
2016-Aug-10 19:33N 32°37' W 117°17'0 0.4
2016-Aug-10 18:34N 32°37' W 117°17'0 0.5
2016-Aug-10 17:34N 32°38' W 117°18'0 0.3
2016-Aug-10 16:33N 32°38' W 117°18'1 1.2
2016-Aug-10 15:33N 32°37' W 117°16'1 0.6
2016-Aug-10 14:33N 32°38' W 117°17'3 2.9
2016-Aug-10 13:34N 32°37' W 117°20'7 7.1
2016-Aug-10 12:33N 32°35' W 117°28'10 9.7
2016-Aug-10 11:33N 32°32' W 117°39'1010.0
2016-Aug-10 10:33N 32°29' W 117°51'10 9.8
2016-Aug-10 09:33N 32°26' W 118°02'7 7.4
2016-Aug-10 08:34N 32°24' W 118°10'7 7.4
2016-Aug-10 07:33N 32°22' W 118°19'7 7.2
2016-Aug-10 06:32N 32°20' W 118°27'7 7.4
2016-Aug-10 05:34N 32°17' W 118°35'9 9.1
2016-Aug-10 04:33N 32°15' W 118°45'7 7.5
2016-Aug-10 03:33N 32°15' W 118°54'1010.3
2016-Aug-10 02:33N 32°18' W 119°06'1010.3
2016-Aug-10 01:33N 32°19' W 119°18'1010.0
2016-Aug-10 00:34N 32°21' W 119°30'1010.0
2016-Aug-09 23:33N 32°23' W 119°41'10 9.9
2016-Aug-09 22:33N 32°24' W 119°53'11 9.8
2016-Aug-09 21:27N 32°26' W 120°06'1210.0
2016-Aug-09 20:17N 32°28' W 120°20'910.0
2016-Aug-09 19:22N 32°29' W 120°30'9 9.8
2016-Aug-09 18:30N 32°31' W 120°40'19 9.9
2016-Aug-09 16:34N 32°34' W 121°03'10 9.3
2016-Aug-09 15:30N 32°35' W 121°14'12 9.5
2016-Aug-09 14:17N 32°37' W 121°28'8 9.3
2016-Aug-09 13:25N 32°38' W 121°37'8 9.4
2016-Aug-09 12:30N 32°40' W 121°47'47 7.9
2016-Aug-09 06:31N 32°47' W 122°43'  

Dump ship's entire track history